Time;durP1;ratioP1;P1;durP2;ratioP2;P2;SDS_P1;SDS_P2;PMS_P1;PMS_P2;Temp;Humidity;BMP_temperature;BMP_pressure;BME280_temperature;BME280_humidity;BME280_pressure;Samples;Min_cycle;Max_cycle;Signal;HPM_P1;HPM_P2
2024/04/17 00:03:59;;;;;;;0.00;0.00;;;;;;;4.99;73.63;100068.09;16689715;26;20466;-51
2024/04/17 00:11:34;;;;;;;0.05;0.05;;;;;;;4.78;74.45;100076.06;16679373;26;20012;-52
2024/04/17 00:19:12;;;;;;;0.00;0.00;;;;;;;4.54;76.33;100072.75;16678095;26;20012;-51
2024/04/17 00:26:48;;;;;;;0.00;0.00;;;;;;;4.73;74.99;100086.44;16671724;26;20052;-51
2024/04/17 00:34:26;;;;;;;0.10;0.10;;;;;;;4.74;74.71;100085.41;16654249;26;20355;-50
2024/04/17 00:42:01;;;;;;;0.03;0.03;;;;;;;4.42;75.07;100084.03;16567986;26;20008;-51
2024/04/17 00:49:38;;;;;;;0.00;0.00;;;;;;;4.61;74.26;100089.56;16582506;26;20007;-51
2024/04/17 00:57:17;;;;;;;0.00;0.00;;;;;;;4.57;75.49;100072.38;16599394;26;20000;-52
2024/04/17 01:04:54;;;;;;;0.00;0.00;;;;;;;5.08;74.49;100080.25;16672960;26;20000;-50
2024/04/17 01:12:29;;;;;;;0.00;0.00;;;;;;;5.22;74.17;100091.00;16671256;26;20494;-50
2024/04/17 01:20:08;;;;;;;0.00;0.00;;;;;;;4.77;74.93;100099.16;16687408;26;20050;-50
2024/04/17 01:27:45;;;;;;;0.00;0.00;;;;;;;5.19;74.39;100100.19;16687652;26;20432;-51
2024/04/17 01:35:20;;;;;;;0.00;0.00;;;;;;;5.05;74.51;100096.59;16687233;26;20000;-51
2024/04/17 01:42:58;;;;;;;0.00;0.00;;;;;;;5.28;73.48;100100.88;16686584;26;20000;-51
2024/04/17 01:50:33;;;;;;;0.10;0.10;;;;;;;5.05;73.17;100106.41;16671017;26;20012;-51
2024/04/17 01:58:14;;;;;;;0.00;0.00;;;;;;;5.49;72.20;100110.66;16685682;26;20019;-51
2024/04/17 02:05:52;;;;;;;0.00;0.00;;;;;;;5.48;71.45;100119.69;16685367;26;20015;-50
2024/04/17 02:13:29;;;;;;;0.00;0.00;;;;;;;5.46;71.63;100119.88;16685669;26;20439;-51
2024/04/17 02:21:06;;;;;;;0.00;0.00;;;;;;;5.29;71.89;100114.00;16684598;26;20438;-50
2024/04/17 02:28:43;;;;;;;0.00;0.00;;;;;;;4.96;72.80;100124.31;16651910;26;20024;-49
2024/04/17 02:36:19;;;;;;;0.20;0.15;;;;;;;5.25;71.34;100115.38;16683990;26;19996;-51
2024/04/17 02:43:57;;;;;;;0.00;0.00;;;;;;;5.15;71.74;100138.81;16685056;26;20019;-51
2024/04/17 02:51:33;;;;;;;0.00;0.00;;;;;;;4.65;73.32;100135.22;16669181;26;20055;-50
2024/04/17 02:59:15;;;;;;;0.00;0.00;;;;;;;4.32;75.02;100137.47;16650233;26;20004;-54
2024/04/17 03:06:57;;;;;;;0.00;0.00;;;;;;;4.28;76.35;100154.75;16683108;26;20004;-51
2024/04/17 03:14:35;;;;;;;0.00;0.00;;;;;;;4.24;75.66;100151.69;16638231;26;20011;-51
2024/04/17 03:22:11;;;;;;;0.00;0.00;;;;;;;3.80;75.02;100061.38;16683511;26;20077;-51
2024/04/17 03:29:50;;;;;;;0.00;0.00;;;;;;;4.55;75.47;100159.41;16639894;26;20004;-54
2024/04/17 03:37:26;;;;;;;0.00;0.00;;;;;;;4.60;73.99;100124.31;16681929;26;20007;-50
2024/04/17 03:45:04;;;;;;;0.00;0.00;;;;;;;4.56;74.93;100168.22;16683137;26;20000;-52
2024/04/17 03:52:39;;;;;;;0.00;0.00;;;;;;;4.67;73.99;100183.72;16670307;26;20043;-50
2024/04/17 04:00:19;;;;;;;0.00;0.00;;;;;;;4.77;74.17;100189.56;16683225;26;20701;-50
2024/04/17 04:07:55;;;;;;;0.00;0.00;;;;;;;4.82;74.05;100191.66;16681974;26;20644;-52
2024/04/17 04:15:33;;;;;;;0.00;0.00;;;;;;;4.86;73.85;100200.91;16681231;26;20012;-51
2024/04/17 04:23:08;;;;;;;0.00;0.00;;;;;;;4.69;74.77;100210.09;16680216;26;20037;-50
2024/04/17 04:30:46;;;;;;;0.00;0.00;;;;;;;4.58;75.10;100203.44;16689457;26;19996;-52
2024/04/17 04:38:21;;;;;;;0.00;0.00;;;;;;;5.07;73.66;100208.91;16690758;26;19997;-52
2024/04/17 04:46:00;;;;;;;0.00;0.00;;;;;;;5.14;74.01;100214.34;16692679;26;20004;-51
2024/04/17 04:53:39;;;;;;;0.00;0.00;;;;;;;4.74;74.58;100239.59;16689995;26;20069;-52
2024/04/17 05:01:18;;;;;;;0.32;0.32;;;;;;;4.73;77.36;100241.44;16688659;26;20845;-51
2024/04/17 05:08:54;;;;;;;1.60;0.13;;;;;;;5.51;74.69;100249.72;16690340;26;20000;-53
2024/04/17 05:16:32;;;;;;;1.48;0.22;;;;;;;5.23;74.89;100263.75;16689973;26;20008;-51
2024/04/17 05:24:08;;;;;;;0.00;0.00;;;;;;;5.05;76.67;100261.50;16636417;26;20015;-51
2024/04/17 05:31:48;;;;;;;0.00;0.00;;;;;;;5.18;76.58;100270.66;16639020;26;20005;-51
2024/04/17 05:39:23;;;;;;;0.00;0.00;;;;;;;5.95;73.85;100276.19;16645167;26;19997;-50
2024/04/17 05:47:02;;;;;;;0.05;0.05;;;;;;;6.06;74.23;100281.03;16648060;26;20041;-51
2024/04/17 05:54:38;;;;;;;0.00;0.00;;;;;;;5.94;74.22;100281.72;16601715;26;20001;-52
2024/04/17 06:02:17;;;;;;;0.17;0.17;;;;;;;5.42;77.32;100288.94;16567070;26;20142;-52
2024/04/17 06:09:52;;;;;;;0.00;0.00;;;;;;;6.03;75.29;100292.06;16576507;26;20005;-52
2024/04/17 06:17:30;;;;;;;0.00;0.00;;;;;;;5.91;74.21;100290.06;16667906;26;20019;-53
2024/04/17 06:25:06;;;;;;;0.00;0.00;;;;;;;5.38;75.29;100285.00;16635436;26;20085;-52
2024/04/17 06:32:48;;;;;;;0.00;0.00;;;;;;;5.35;75.29;100296.03;16587400;26;20011;-53
2024/04/17 06:40:23;;;;;;;0.00;0.00;;;;;;;6.31;74.22;100291.25;16644649;26;20324;-53
2024/04/17 06:48:04;;;;;;;0.00;0.00;;;;;;;6.24;75.05;100309.03;16651705;26;20055;-55
2024/04/17 06:55:44;;;;;;;0.00;0.00;;;;;;;6.53;74.27;100314.19;16590331;26;20104;-52
2024/04/17 07:03:21;;;;;;;0.00;0.00;;;;;;;6.71;72.13;100318.19;16563601;26;20077;-52
2024/04/17 07:10:56;;;;;;;0.00;0.00;;;;;;;6.39;71.74;100318.59;16593689;26;20001;-51
2024/04/17 07:18:34;;;;;;;0.00;0.00;;;;;;;6.57;74.34;100317.25;16687999;26;20005;-52
2024/04/17 07:26:10;;;;;;;0.00;0.00;;;;;;;7.02;71.19;100318.59;16695690;26;20048;-57
2024/04/17 07:33:49;;;;;;;0.00;0.00;;;;;;;7.46;71.07;100312.00;16692854;26;19996;-53
2024/04/17 07:41:24;;;;;;;0.00;0.00;;;;;;;7.70;69.62;100320.50;16583950;26;20020;-54
2024/04/17 07:49:02;;;;;;;0.03;0.03;;;;;;;8.22;65.54;100326.97;16625687;26;20354;-52
2024/04/17 07:56:37;;;;;;;0.00;0.00;;;;;;;9.11;61.75;100329.16;16691169;26;20086;-53
2024/04/17 08:04:15;;;;;;;0.00;0.00;;;;;;;10.82;58.65;100326.41;16689700;26;20001;-54
2024/04/17 08:11:52;;;;;;;0.00;0.00;;;;;;;11.72;55.55;100329.28;16690900;26;20004;-51
2024/04/17 08:19:30;;;;;;;0.17;0.10;;;;;;;11.38;54.11;100335.31;16690210;26;20000;-56
2024/04/17 08:27:05;;;;;;;0.00;0.00;;;;;;;11.14;56.40;100335.13;16689082;26;20019;-50
2024/04/17 08:34:43;;;;;;;1.90;0.40;;;;;;;11.80;52.99;100327.28;16676676;26;20001;-52
2024/04/17 08:42:24;;;;;;;0.13;0.13;;;;;;;10.06;56.49;100332.78;16649788;26;20019;-52
2024/04/17 08:50:07;;;;;;;0.08;0.08;;;;;;;9.56;58.25;100338.03;16644881;26;20001;-52
2024/04/17 08:57:42;;;;;;;0.00;0.00;;;;;;;10.43;56.88;100335.63;16679564;26;20015;-52
2024/04/17 09:05:25;;;;;;;0.00;0.00;;;;;;;12.57;51.09;100325.50;16669161;26;20000;-53
2024/04/17 09:13:06;;;;;;;0.43;0.43;;;;;;;12.85;49.80;100324.00;16687398;26;20123;-51
2024/04/17 09:20:45;;;;;;;0.00;0.00;;;;;;;10.14;55.86;100331.72;16689010;26;20044;-50
2024/04/17 09:28:25;;;;;;;0.00;0.00;;;;;;;12.67;48.86;100320.34;16694982;26;19996;-49
2024/04/17 09:36:05;;;;;;;0.00;0.00;;;;;;;14.67;42.67;100315.03;16700295;26;20019;-49
2024/04/17 09:43:45;;;;;;;0.00;0.00;;;;;;;15.58;40.43;100309.19;16704597;26;20027;-51
2024/04/17 09:51:28;;;;;;;0.32;0.10;;;;;;;12.69;46.17;100310.19;16672410;26;20000;-51
2024/04/17 09:59:04;;;;;;;0.13;0.13;;;;;;;12.22;42.95;100299.41;16652082;26;20073;-48
2024/04/17 10:06:43;;;;;;;0.00;0.00;;;;;;;14.22;39.44;100304.28;16687198;26;20435;-48
2024/04/17 10:14:20;;;;;;;0.00;0.00;;;;;;;12.26;43.16;100294.34;16655365;26;20495;-49
2024/04/17 10:22:01;;;;;;;0.00;0.00;;;;;;;13.36;40.66;100290.88;16571151;26;20019;-50
2024/04/17 10:29:37;;;;;;;0.00;0.00;;;;;;;13.29;37.42;100290.22;16577582;26;20091;-50
2024/04/17 10:37:17;;;;;;;0.00;0.00;;;;;;;13.58;36.57;100287.53;16577970;26;20000;-51
2024/04/17 10:44:57;;;;;;;0.00;0.00;;;;;;;14.66;35.75;100278.28;16576517;26;20073;-49
2024/04/17 10:52:35;;;;;;;0.00;0.00;;;;;;;15.18;35.21;100274.38;16560863;26;20009;-51
2024/04/17 11:00:11;;;;;;;0.00;0.00;;;;;;;15.43;33.09;100273.84;16574678;26;20009;-50
2024/04/17 11:07:49;;;;;;;0.00;0.00;;;;;;;15.73;31.25;100267.97;16576102;26;20444;-48
2024/04/17 11:15:26;;;;;;;0.00;0.00;;;;;;;16.50;34.26;100267.50;16553843;26;20037;-47
2024/04/17 11:23:08;;;;;;;0.00;0.00;;;;;;;16.92;31.55;100261.28;16672501;26;20008;-49
2024/04/17 11:30:50;;;;;;;0.00;0.00;;;;;;;15.71;32.89;100254.69;16684072;26;20008;-49
2024/04/17 11:38:28;;;;;;;0.00;0.00;;;;;;;15.68;36.60;100257.09;16655700;26;20479;-49
2024/04/17 11:46:04;;;;;;;0.00;0.00;;;;;;;15.00;32.79;100251.97;16692025;26;20303;-49
2024/04/17 11:53:42;;;;;;;0.13;0.13;;;;;;;17.14;31.71;100261.09;16632053;26;20000;-52
2024/04/17 12:01:17;;;;;;;0.00;0.00;;;;;;;14.50;34.77;100271.84;16691595;26;20047;-49
2024/04/17 12:08:58;;;;;;;0.00;0.00;;;;;;;15.84;31.80;100269.69;16692566;26;20004;-54
2024/04/17 12:16:37;;;;;;;0.03;0.03;;;;;;;16.24;33.58;100273.84;16681595;26;20016;-51
2024/04/17 12:24:19;;;;;;;0.00;0.00;;;;;;;17.19;30.41;100255.69;16707512;26;20000;-52
2024/04/17 12:31:54;;;;;;;0.00;0.00;;;;;;;14.62;32.51;100252.84;16686245;26;20439;-51
2024/04/17 12:39:32;;;;;;;0.00;0.00;;;;;;;14.78;31.28;100259.25;16687033;26;20019;-49
2024/04/17 12:47:08;;;;;;;0.00;0.00;;;;;;;14.97;32.60;100260.59;16679617;26;20000;-49
2024/04/17 12:54:46;;;;;;;0.00;0.00;;;;;;;15.13;33.18;100267.00;16667661;26;20070;-49
2024/04/17 13:02:23;;;;;;;0.00;0.00;;;;;;;16.44;32.58;100265.84;16719419;26;20078;-52
2024/04/17 13:10:00;;;;;;;0.00;0.00;;;;;;;14.14;34.72;100269.63;16693259;26;20073;-50
2024/04/17 13:17:43;;;;;;;0.00;0.00;;;;;;;14.04;34.41;100271.09;16692135;26;20431;-50
2024/04/17 13:25:21;;;;;;;0.00;0.00;;;;;;;13.43;39.21;100266.47;16690357;26;20073;-48
2024/04/17 13:32:58;;;;;;;0.00;0.00;;;;;;;13.61;37.68;100265.47;16693370;26;20000;-49
2024/04/17 13:40:38;;;;;;;0.00;0.00;;;;;;;14.45;35.51;100263.63;16593765;26;20095;-52
2024/04/17 13:48:16;;;;;;;0.00;0.00;;;;;;;13.68;36.81;100264.25;16619476;26;20004;-50
2024/04/17 13:55:54;;;;;;;0.00;0.00;;;;;;;13.20;37.46;100270.06;16691673;26;20004;-52
2024/04/17 14:03:32;;;;;;;0.10;0.10;;;;;;;13.20;40.44;100275.44;16694543;26;20019;-49
2024/04/17 14:11:10;;;;;;;0.00;0.00;;;;;;;13.35;41.86;100270.38;16694991;26;20256;-53
2024/04/17 14:18:45;;;;;;;0.00;0.00;;;;;;;13.19;40.40;100242.25;16694038;26;20020;-50
2024/04/17 14:26:24;;;;;;;0.00;0.00;;;;;;;13.81;39.80;100282.03;16687726;26;20053;-51
2024/04/17 14:34:04;;;;;;;0.10;0.10;;;;;;;12.92;39.44;100289.69;16681945;26;20000;-48
2024/04/17 14:41:42;;;;;;;0.00;0.00;;;;;;;13.02;40.60;100285.31;16660361;26;20000;-51
2024/04/17 14:49:18;;;;;;;0.00;0.00;;;;;;;13.13;40.08;100286.34;16627052;26;20017;-53
2024/04/17 14:56:56;;;;;;;0.00;0.00;;;;;;;13.35;40.55;100285.75;16589920;26;20016;-50
2024/04/17 15:04:31;;;;;;;0.00;0.00;;;;;;;12.59;40.59;100290.25;16671965;26;20000;-48
2024/04/17 15:12:10;;;;;;;21.40;1.13;;;;;;;12.67;41.24;100289.91;16684028;26;20524;-50
2024/04/17 15:19:46;;;;;;;0.00;0.00;;;;;;;12.41;41.97;100297.41;16687004;26;20468;-51
2024/04/17 15:28:01;;;;;;;0.60;0.40;;;;;;;11.55;42.86;100300.56;16685031;26;20083;-51
2024/04/17 15:35:37;;;;;;;;;;;;;;;12.18;43.22;100286.63;16685743;26;20000;-54
2024/04/17 15:43:15;;;;;;;0.10;0.10;;;;;;;12.15;42.61;100290.59;16685014;26;19925;-54
2024/04/17 15:50:53;;;;;;;0.00;0.00;;;;;;;12.11;42.87;100299.34;16668435;26;20004;-50
2024/04/17 15:58:31;;;;;;;0.00;0.00;;;;;;;12.08;43.04;100297.97;16682939;26;20008;-51
2024/04/17 16:06:12;;;;;;;0.00;0.00;;;;;;;11.94;43.08;100301.91;16682372;26;20011;-52
2024/04/17 16:13:49;;;;;;;0.00;0.00;;;;;;;11.57;44.54;100304.66;16678135;26;20004;-50
2024/04/17 16:21:25;;;;;;;0.00;0.00;;;;;;;11.28;45.68;100318.88;16681375;26;20005;-51
2024/04/17 16:29:04;;;;;;;0.08;0.08;;;;;;;11.51;45.88;100308.25;16678731;26;20004;-53
2024/04/17 16:36:43;;;;;;;0.00;0.00;;;;;;;11.22;46.59;100321.41;16679189;26;20001;-51
2024/04/17 16:44:20;;;;;;;0.95;0.28;;;;;;;10.92;46.13;100324.03;16689924;26;20000;-52
2024/04/17 16:51:56;;;;;;;0.70;0.57;;;;;;;10.56;46.94;100332.84;16675221;26;20057;-49
2024/04/17 16:59:37;;;;;;;0.00;0.00;;;;;;;10.11;48.70;100341.00;16690233;26;20051;-52
2024/04/17 17:07:12;;;;;;;0.00;0.00;;;;;;;9.77;48.63;100307.41;16689800;26;20407;-52
2024/04/17 17:14:51;;;;;;;0.00;0.00;;;;;;;10.14;47.71;100353.97;16690783;26;20077;-51
2024/04/17 17:22:27;;;;;;;0.20;0.10;;;;;;;10.15;46.99;100355.63;16686195;26;20019;-51
2024/04/17 17:30:04;;;;;;;0.00;0.00;;;;;;;10.05;48.95;100367.88;16673680;26;20004;-49
2024/04/17 17:37:39;;;;;;;0.20;0.20;;;;;;;9.65;48.77;100368.06;16674942;26;20012;-51
2024/04/17 17:45:16;;;;;;;0.00;0.00;;;;;;;9.73;49.26;100378.56;16685475;26;20437;-52
2024/04/17 17:52:52;;;;;;;0.20;0.20;;;;;;;9.67;50.82;100390.94;16676915;26;20534;-52
2024/04/17 18:00:30;;;;;;;0.00;0.00;;;;;;;9.48;51.71;100399.06;16684547;26;20008;-51
2024/04/17 18:08:06;;;;;;;0.00;0.00;;;;;;;9.64;52.16;100398.59;16685081;26;20032;-50
2024/04/17 18:15:54;;;;;;;0.00;0.00;;;;;;;9.15;54.50;100418.72;16682600;26;20008;-51
2024/04/17 18:23:28;;;;;;;0.00;0.00;;;;;;;8.72;55.56;100423.69;16677718;26;20008;-53
2024/04/17 18:31:07;;;;;;;0.00;0.00;;;;;;;9.27;54.96;100425.06;16686997;26;20008;-53
2024/04/17 18:38:43;;;;;;;1.13;0.65;;;;;;;9.29;56.26;100440.94;16687687;26;19996;-54
2024/04/17 18:46:21;;;;;;;0.40;0.40;;;;;;;9.11;56.69;100460.34;16685826;26;20008;-53
2024/04/17 18:53:56;;;;;;;2.10;1.45;;;;;;;8.97;57.07;100472.91;16654621;26;20065;-51
2024/04/17 19:01:35;;;;;;;0.20;0.20;;;;;;;8.73;58.45;100490.41;16671975;26;20008;-53
2024/04/17 19:09:10;;;;;;;0.00;0.00;;;;;;;8.35;59.42;100508.81;16683731;26;20001;-52
2024/04/17 19:16:47;;;;;;;0.03;0.03;;;;;;;8.45;58.60;100508.44;16683256;26;20042;-52
2024/04/17 19:24:27;;;;;;;0.00;0.00;;;;;;;8.11;58.85;100523.50;16649740;26;20000;-52
2024/04/17 19:32:08;;;;;;;0.00;0.00;;;;;;;7.62;60.01;100521.84;16674757;26;20103;-52
2024/04/17 19:39:44;;;;;;;0.00;0.00;;;;;;;7.65;60.04;100519.59;16611844;26;20001;-52
2024/04/17 19:47:26;;;;;;;0.00;0.00;;;;;;;7.92;59.31;100517.88;16615962;26;20120;-53
2024/04/17 19:55:01;;;;;;;0.00;0.00;;;;;;;7.73;60.74;100507.91;16645772;26;20331;-50
2024/04/17 20:02:40;;;;;;;0.00;0.00;;;;;;;8.08;60.21;100519.41;16670755;26;20459;-52
2024/04/17 20:10:17;;;;;;;0.00;0.00;;;;;;;7.50;61.85;100516.19;16643914;26;20429;-54
2024/04/17 20:17:56;;;;;;;2.13;1.13;;;;;;;8.19;60.36;100528.69;16675319;26;20004;-56
2024/04/17 20:25:31;;;;;;;0.00;0.00;;;;;;;8.18;60.26;100511.81;16683446;26;20000;-51
2024/04/17 20:33:08;;;;;;;0.00;0.00;;;;;;;8.50;60.31;100528.22;16672856;26;20000;-55
2024/04/17 20:40:43;;;;;;;0.00;0.00;;;;;;;8.32;60.49;100530.59;16633543;26;20007;-54
2024/04/17 20:48:23;;;;;;;0.00;0.00;;;;;;;8.38;60.27;100529.81;16630276;26;20019;-51
2024/04/17 20:55:59;;;;;;;0.40;0.40;;;;;;;7.89;62.80;100536.16;16635773;26;20024;-53
2024/04/17 21:03:36;;;;;;;1.23;0.85;;;;;;;8.22;61.90;100547.00;16676643;26;19996;-51
2024/04/17 21:11:14;;;;;;;0.00;0.00;;;;;;;7.91;61.51;100534.94;16639670;26;20025;-51
2024/04/17 21:18:52;;;;;;;0.17;0.17;;;;;;;7.71;62.87;100562.56;16689164;26;20382;-52
2024/04/17 21:26:27;;;;;;;0.00;0.00;;;;;;;7.87;62.28;100573.75;16681171;26;20008;-52
2024/04/17 21:34:04;;;;;;;0.00;0.00;;;;;;;7.49;63.49;100591.19;16675333;26;20012;-53
2024/04/17 21:41:39;;;;;;;0.10;0.10;;;;;;;7.50;63.22;100592.81;16660180;26;20001;-52
2024/04/17 21:49:17;;;;;;;0.00;0.00;;;;;;;7.15;64.40;100598.09;16624702;26;20001;-53
2024/04/17 21:56:53;;;;;;;0.00;0.00;;;;;;;6.81;64.86;100606.78;16675906;26;20324;-54
2024/04/17 22:04:31;;;;;;;1.20;0.55;;;;;;;6.70;66.10;100618.75;16684840;26;20011;-53
2024/04/17 22:12:10;;;;;;;0.00;0.00;;;;;;;6.70;65.34;100617.94;16682214;26;20358;-53
2024/04/17 22:20:06;;;;;;;;;;;;;;;6.45;67.19;100631.59;16631294;26;20000;-51
2024/04/17 22:27:45;;;;;;;0.00;0.00;;;;;;;6.17;67.41;100638.59;16686387;26;20327;-54
2024/04/17 22:35:23;;;;;;;0.63;0.63;;;;;;;6.45;66.59;100636.09;16686022;26;20004;-52
2024/04/17 22:42:58;;;;;;;0.00;0.00;;;;;;;6.46;66.29;100649.22;16685539;26;20470;-52
2024/04/17 22:50:35;;;;;;;0.43;0.43;;;;;;;6.39;66.68;100651.00;16685877;26;20373;-54
2024/04/17 22:58:10;;;;;;;0.00;0.00;;;;;;;6.22;67.13;100665.53;16686142;26;20295;-53
2024/04/17 23:05:48;;;;;;;0.00;0.00;;;;;;;5.97;67.46;100648.94;16685590;26;20077;-51
2024/04/17 23:13:23;;;;;;;0.30;0.30;;;;;;;5.93;68.21;100669.81;16683918;26;19997;-52
2024/04/17 23:21:00;;;;;;;0.00;0.00;;;;;;;5.81;67.69;100674.72;16684378;26;20004;-50
2024/04/17 23:28:35;;;;;;;0.00;0.00;;;;;;;5.58;68.93;100676.59;16684563;26;20110;-53
2024/04/17 23:36:13;;;;;;;0.47;0.43;;;;;;;5.40;69.62;100676.06;16683172;26;20445;-50
2024/04/17 23:43:49;;;;;;;0.00;0.00;;;;;;;5.25;70.08;100689.31;16683617;26;20073;-52
2024/04/17 23:51:27;;;;;;;0.00;0.00;;;;;;;5.36;70.60;100689.75;16667717;26;20000;-52
2024/04/17 23:59:03;;;;;;;0.00;0.00;;;;;;;5.30;70.20;100689.59;16682664;26;20015;-53
